sensor_id;sensor_type;location;lat;lon;timestamp;temperature;humidity
67529;DHT22;54366;51.980;5.856;2022-09-09T00:01:53;17.50;78.60
67529;DHT22;54366;51.980;5.856;2022-09-09T00:04:33;17.50;78.90
67529;DHT22;54366;51.980;5.856;2022-09-09T00:09:50;17.50;78.80
67529;DHT22;54366;51.980;5.856;2022-09-09T00:15:02;17.50;79.00
67529;DHT22;54366;51.980;5.856;2022-09-09T00:20:19;17.50;78.80
67529;DHT22;54366;51.980;5.856;2022-09-09T00:23:12;17.50;78.90
67529;DHT22;54366;51.980;5.856;2022-09-09T00:28:22;17.50;79.00
67529;DHT22;54366;51.980;5.856;2022-09-09T00:30:49;17.50;79.10
67529;DHT22;54366;51.980;5.856;2022-09-09T00:33:18;17.50;79.60
67529;DHT22;54366;51.980;5.856;2022-09-09T00:36:00;17.50;79.40
67529;DHT22;54366;51.980;5.856;2022-09-09T00:38:40;17.50;79.40
67529;DHT22;54366;51.980;5.856;2022-09-09T00:41:38;17.50;79.40
67529;DHT22;54366;51.980;5.856;2022-09-09T00:53:28;17.50;79.60
67529;DHT22;54366;51.980;5.856;2022-09-09T00:56:03;17.50;79.50
67529;DHT22;54366;51.980;5.856;2022-09-09T00:58:33;17.50;79.40
67529;DHT22;54366;51.980;5.856;2022-09-09T01:01:10;17.50;79.20
67529;DHT22;54366;51.980;5.856;2022-09-09T01:03:53;17.50;79.30
67529;DHT22;54366;51.980;5.856;2022-09-09T01:06:35;17.40;79.10
67529;DHT22;54366;51.980;5.856;2022-09-09T01:16:54;17.30;79.20
67529;DHT22;54366;51.980;5.856;2022-09-09T01:28:26;17.20;78.70
67529;DHT22;54366;51.980;5.856;2022-09-09T01:31:05;17.20;78.70
67529;DHT22;54366;51.980;5.856;2022-09-09T01:33:40;17.10;78.80
67529;DHT22;54366;51.980;5.856;2022-09-09T01:38:48;17.10;78.80
67529;DHT22;54366;51.980;5.856;2022-09-09T01:41:15;17.10;78.90
67529;DHT22;54366;51.980;5.856;2022-09-09T01:43:59;17.10;78.50
67529;DHT22;54366;51.980;5.856;2022-09-09T01:46:29;17.10;78.50
67529;DHT22;54366;51.980;5.856;2022-09-09T01:48:56;17.00;79.20
67529;DHT22;54366;51.980;5.856;2022-09-09T01:51:23;17.00;78.60
67529;DHT22;54366;51.980;5.856;2022-09-09T01:53:50;17.00;78.60
67529;DHT22;54366;51.980;5.856;2022-09-09T01:56:29;16.90;78.50
67529;DHT22;54366;51.980;5.856;2022-09-09T01:59:19;17.00;78.80
67529;DHT22;54366;51.980;5.856;2022-09-09T02:02:17;17.00;78.50
67529;DHT22;54366;51.980;5.856;2022-09-09T02:04:56;16.90;78.60
67529;DHT22;54366;51.980;5.856;2022-09-09T02:10:20;16.90;78.40
67529;DHT22;54366;51.980;5.856;2022-09-09T02:13:10;16.80;78.60
67529;DHT22;54366;51.980;5.856;2022-09-09T02:15:55;16.80;78.70
67529;DHT22;54366;51.980;5.856;2022-09-09T02:18:35;16.80;78.70
67529;DHT22;54366;51.980;5.856;2022-09-09T02:21:05;16.80;79.40
67529;DHT22;54366;51.980;5.856;2022-09-09T02:23:34;16.80;78.80
67529;DHT22;54366;51.980;5.856;2022-09-09T02:26:03;16.70;78.70
67529;DHT22;54366;51.980;5.856;2022-09-09T02:28:32;16.70;78.90
67529;DHT22;54366;51.980;5.856;2022-09-09T02:30:59;16.70;78.90
67529;DHT22;54366;51.980;5.856;2022-09-09T02:33:37;16.70;79.10
67529;DHT22;54366;51.980;5.856;2022-09-09T02:36:07;16.70;79.10
67529;DHT22;54366;51.980;5.856;2022-09-09T02:38:39;16.70;78.90
67529;DHT22;54366;51.980;5.856;2022-09-09T02:41:10;16.70;78.70
67529;DHT22;54366;51.980;5.856;2022-09-09T02:43:37;16.60;78.90
67529;DHT22;54366;51.980;5.856;2022-09-09T02:49:15;16.70;79.10
67529;DHT22;54366;51.980;5.856;2022-09-09T02:52:16;16.60;79.00
67529;DHT22;54366;51.980;5.856;2022-09-09T02:54:45;16.60;79.20
67529;DHT22;54366;51.980;5.856;2022-09-09T02:57:19;16.60;79.00
67529;DHT22;54366;51.980;5.856;2022-09-09T02:59:49;16.50;79.00
67529;DHT22;54366;51.980;5.856;2022-09-09T03:02:16;16.50;79.10
67529;DHT22;54366;51.980;5.856;2022-09-09T03:04:46;16.50;79.50
67529;DHT22;54366;51.980;5.856;2022-09-09T03:07:20;16.50;79.10
67529;DHT22;54366;51.980;5.856;2022-09-09T03:09:47;16.50;79.10
67529;DHT22;54366;51.980;5.856;2022-09-09T03:12:15;16.50;79.10
67529;DHT22;54366;51.980;5.856;2022-09-09T03:14:42;16.50;79.00
67529;DHT22;54366;51.980;5.856;2022-09-09T03:17:11;16.50;79.10
67529;DHT22;54366;51.980;5.856;2022-09-09T03:19:45;16.40;79.10
67529;DHT22;54366;51.980;5.856;2022-09-09T03:22:12;16.40;79.20
67529;DHT22;54366;51.980;5.856;2022-09-09T03:24:41;16.50;79.30
67529;DHT22;54366;51.980;5.856;2022-09-09T03:27:08;16.40;79.30
67529;DHT22;54366;51.980;5.856;2022-09-09T03:29:36;16.40;79.40
67529;DHT22;54366;51.980;5.856;2022-09-09T03:32:06;16.40;79.30
67529;DHT22;54366;51.980;5.856;2022-09-09T03:34:32;16.40;79.50
67529;DHT22;54366;51.980;5.856;2022-09-09T03:36:58;16.40;79.30
67529;DHT22;54366;51.980;5.856;2022-09-09T03:39:26;16.40;79.30
67529;DHT22;54366;51.980;5.856;2022-09-09T03:41:52;16.40;79.40
67529;DHT22;54366;51.980;5.856;2022-09-09T03:44:18;16.40;79.70
67529;DHT22;54366;51.980;5.856;2022-09-09T03:46:46;16.40;79.60
67529;DHT22;54366;51.980;5.856;2022-09-09T03:49:14;16.40;79.60
67529;DHT22;54366;51.980;5.856;2022-09-09T03:51:41;16.40;79.50
67529;DHT22;54366;51.980;5.856;2022-09-09T03:54:11;16.40;79.70
67529;DHT22;54366;51.980;5.856;2022-09-09T03:56:37;16.40;79.90
67529;DHT22;54366;51.980;5.856;2022-09-09T03:59:03;16.50;80.20
67529;DHT22;54366;51.980;5.856;2022-09-09T04:01:30;16.50;80.30
67529;DHT22;54366;51.980;5.856;2022-09-09T04:03:56;16.50;80.40
67529;DHT22;54366;51.980;5.856;2022-09-09T04:06:24;16.50;80.50
67529;DHT22;54366;51.980;5.856;2022-09-09T04:08:51;16.50;80.20
67529;DHT22;54366;51.980;5.856;2022-09-09T04:11:19;16.50;80.20
67529;DHT22;54366;51.980;5.856;2022-09-09T04:13:48;16.50;80.50
67529;DHT22;54366;51.980;5.856;2022-09-09T04:16:17;16.50;80.60
67529;DHT22;54366;51.980;5.856;2022-09-09T04:18:43;16.50;80.40
67529;DHT22;54366;51.980;5.856;2022-09-09T04:21:10;16.50;80.40
67529;DHT22;54366;51.980;5.856;2022-09-09T04:23:38;16.60;80.40
67529;DHT22;54366;51.980;5.856;2022-09-09T04:26:05;16.60;80.50
67529;DHT22;54366;51.980;5.856;2022-09-09T04:28:35;16.60;80.40
67529;DHT22;54366;51.980;5.856;2022-09-09T04:31:14;16.50;80.70
67529;DHT22;54366;51.980;5.856;2022-09-09T04:33:41;16.60;80.50
67529;DHT22;54366;51.980;5.856;2022-09-09T04:36:08;16.60;80.90
67529;DHT22;54366;51.980;5.856;2022-09-09T04:38:35;16.60;80.80
67529;DHT22;54366;51.980;5.856;2022-09-09T04:41:03;16.60;81.30
67529;DHT22;54366;51.980;5.856;2022-09-09T04:43:31;16.60;81.00
67529;DHT22;54366;51.980;5.856;2022-09-09T04:45:58;16.60;81.10
67529;DHT22;54366;51.980;5.856;2022-09-09T04:48:25;16.60;81.30
67529;DHT22;54366;51.980;5.856;2022-09-09T04:51:01;16.60;81.50
67529;DHT22;54366;51.980;5.856;2022-09-09T04:53:29;16.60;81.00
67529;DHT22;54366;51.980;5.856;2022-09-09T04:56:07;16.60;81.10
67529;DHT22;54366;51.980;5.856;2022-09-09T04:58:39;16.70;80.80
67529;DHT22;54366;51.980;5.856;2022-09-09T05:01:09;16.70;81.00
67529;DHT22;54366;51.980;5.856;2022-09-09T05:03:37;16.70;80.80
67529;DHT22;54366;51.980;5.856;2022-09-09T05:06:11;16.70;80.80
67529;DHT22;54366;51.980;5.856;2022-09-09T05:08:38;16.70;80.80
67529;DHT22;54366;51.980;5.856;2022-09-09T05:11:22;16.70;80.70
67529;DHT22;54366;51.980;5.856;2022-09-09T05:13:52;16.70;80.80
67529;DHT22;54366;51.980;5.856;2022-09-09T05:16:20;16.70;80.50
67529;DHT22;54366;51.980;5.856;2022-09-09T05:18:46;16.80;80.70
67529;DHT22;54366;51.980;5.856;2022-09-09T05:21:15;16.80;80.70
67529;DHT22;54366;51.980;5.856;2022-09-09T05:23:41;16.80;80.80
67529;DHT22;54366;51.980;5.856;2022-09-09T05:26:12;16.80;80.90
67529;DHT22;54366;51.980;5.856;2022-09-09T05:28:40;16.80;80.90
67529;DHT22;54366;51.980;5.856;2022-09-09T05:31:08;16.80;80.90
67529;DHT22;54366;51.980;5.856;2022-09-09T05:33:36;16.80;80.60
67529;DHT22;54366;51.980;5.856;2022-09-09T05:36:10;16.80;80.60
67529;DHT22;54366;51.980;5.856;2022-09-09T05:38:40;16.90;80.90
67529;DHT22;54366;51.980;5.856;2022-09-09T05:41:07;16.90;81.10
67529;DHT22;54366;51.980;5.856;2022-09-09T05:43:33;16.90;80.80
67529;DHT22;54366;51.980;5.856;2022-09-09T05:46:14;16.90;80.70
67529;DHT22;54366;51.980;5.856;2022-09-09T05:48:42;16.90;80.90
67529;DHT22;54366;51.980;5.856;2022-09-09T05:51:11;16.90;80.80
67529;DHT22;54366;51.980;5.856;2022-09-09T05:53:39;16.90;81.00
67529;DHT22;54366;51.980;5.856;2022-09-09T05:56:13;16.90;81.10
67529;DHT22;54366;51.980;5.856;2022-09-09T05:58:41;16.90;80.90
67529;DHT22;54366;51.980;5.856;2022-09-09T06:01:16;16.90;80.70
67529;DHT22;54366;51.980;5.856;2022-09-09T06:03:45;16.90;80.70
67529;DHT22;54366;51.980;5.856;2022-09-09T06:06:14;16.90;81.00
67529;DHT22;54366;51.980;5.856;2022-09-09T06:08:42;16.90;81.60
67529;DHT22;54366;51.980;5.856;2022-09-09T06:11:16;16.90;80.90
67529;DHT22;54366;51.980;5.856;2022-09-09T06:13:43;16.90;81.10
67529;DHT22;54366;51.980;5.856;2022-09-09T06:16:15;17.00;81.30
67529;DHT22;54366;51.980;5.856;2022-09-09T06:18:43;17.00;81.20
67529;DHT22;54366;51.980;5.856;2022-09-09T06:21:18;17.00;81.30
67529;DHT22;54366;51.980;5.856;2022-09-09T06:23:46;17.00;81.50
67529;DHT22;54366;51.980;5.856;2022-09-09T06:26:23;17.00;81.30
67529;DHT22;54366;51.980;5.856;2022-09-09T06:28:53;17.10;81.80
67529;DHT22;54366;51.980;5.856;2022-09-09T06:31:21;17.10;81.10
67529;DHT22;54366;51.980;5.856;2022-09-09T06:33:50;17.10;80.80
67529;DHT22;54366;51.980;5.856;2022-09-09T06:36:20;17.10;80.70
67529;DHT22;54366;51.980;5.856;2022-09-09T06:38:47;17.20;80.80
67529;DHT22;54366;51.980;5.856;2022-09-09T06:41:16;17.20;80.90
67529;DHT22;54366;51.980;5.856;2022-09-09T06:43:48;17.20;80.80
67529;DHT22;54366;51.980;5.856;2022-09-09T06:46:16;17.20;80.80
67529;DHT22;54366;51.980;5.856;2022-09-09T06:48:45;17.20;80.90
67529;DHT22;54366;51.980;5.856;2022-09-09T06:51:16;17.20;80.60
67529;DHT22;54366;51.980;5.856;2022-09-09T06:53:45;17.20;80.60
67529;DHT22;54366;51.980;5.856;2022-09-09T06:56:20;17.30;80.50
67529;DHT22;54366;51.980;5.856;2022-09-09T06:58:50;17.30;80.50
67529;DHT22;54366;51.980;5.856;2022-09-09T07:01:25;17.40;80.60
67529;DHT22;54366;51.980;5.856;2022-09-09T07:03:55;17.40;80.30
67529;DHT22;54366;51.980;5.856;2022-09-09T07:06:27;17.50;80.90
67529;DHT22;54366;51.980;5.856;2022-09-09T07:08:59;17.50;80.40
67529;DHT22;54366;51.980;5.856;2022-09-09T07:11:29;17.60;80.20
67529;DHT22;54366;51.980;5.856;2022-09-09T07:13:58;17.60;80.20
67529;DHT22;54366;51.980;5.856;2022-09-09T07:16:26;17.70;80.00
67529;DHT22;54366;51.980;5.856;2022-09-09T07:18:55;17.70;80.00
67529;DHT22;54366;51.980;5.856;2022-09-09T07:21:25;17.70;79.70
67529;DHT22;54366;51.980;5.856;2022-09-09T07:23:53;17.80;79.60
67529;DHT22;54366;51.980;5.856;2022-09-09T07:26:24;17.80;79.20
67529;DHT22;54366;51.980;5.856;2022-09-09T07:28:52;17.80;79.50
67529;DHT22;54366;51.980;5.856;2022-09-09T07:31:32;17.90;79.40
67529;DHT22;54366;51.980;5.856;2022-09-09T07:33:59;17.90;79.30
67529;DHT22;54366;51.980;5.856;2022-09-09T07:36:34;18.00;79.30
67529;DHT22;54366;51.980;5.856;2022-09-09T07:39:13;18.00;79.30
67529;DHT22;54366;51.980;5.856;2022-09-09T07:41:47;18.10;79.00
67529;DHT22;54366;51.980;5.856;2022-09-09T07:44:19;18.00;78.40
67529;DHT22;54366;51.980;5.856;2022-09-09T07:46:50;18.20;78.80
67529;DHT22;54366;51.980;5.856;2022-09-09T07:49:20;18.20;78.60
67529;DHT22;54366;51.980;5.856;2022-09-09T07:51:47;18.10;78.40
67529;DHT22;54366;51.980;5.856;2022-09-09T07:54:17;18.20;78.30
67529;DHT22;54366;51.980;5.856;2022-09-09T07:56:48;18.20;78.60
67529;DHT22;54366;51.980;5.856;2022-09-09T07:59:16;18.20;78.50
67529;DHT22;54366;51.980;5.856;2022-09-09T08:01:46;18.20;78.10
67529;DHT22;54366;51.980;5.856;2022-09-09T08:04:17;18.20;77.70
67529;DHT22;54366;51.980;5.856;2022-09-09T08:06:48;18.30;77.70
67529;DHT22;54366;51.980;5.856;2022-09-09T08:09:17;18.30;77.70
67529;DHT22;54366;51.980;5.856;2022-09-09T08:11:46;18.40;77.70
67529;DHT22;54366;51.980;5.856;2022-09-09T08:14:14;18.40;77.50
67529;DHT22;54366;51.980;5.856;2022-09-09T08:16:46;18.40;77.10
67529;DHT22;54366;51.980;5.856;2022-09-09T08:19:17;18.40;77.20
67529;DHT22;54366;51.980;5.856;2022-09-09T08:21:45;18.40;77.00
67529;DHT22;54366;51.980;5.856;2022-09-09T08:24:13;18.40;76.30
67529;DHT22;54366;51.980;5.856;2022-09-09T08:26:47;18.40;76.50
67529;DHT22;54366;51.980;5.856;2022-09-09T08:29:22;18.40;76.60
67529;DHT22;54366;51.980;5.856;2022-09-09T08:31:51;18.40;76.70
67529;DHT22;54366;51.980;5.856;2022-09-09T08:34:20;18.40;76.70
67529;DHT22;54366;51.980;5.856;2022-09-09T08:36:49;18.40;76.30
67529;DHT22;54366;51.980;5.856;2022-09-09T08:39:19;18.40;76.20
67529;DHT22;54366;51.980;5.856;2022-09-09T08:53:04;18.60;75.90
67529;DHT22;54366;51.980;5.856;2022-09-09T08:58:23;18.60;75.40
67529;DHT22;54366;51.980;5.856;2022-09-09T09:11:54;18.70;74.10
67529;DHT22;54366;51.980;5.856;2022-09-09T09:14:24;18.80;74.20
67529;DHT22;54366;51.980;5.856;2022-09-09T09:17:11;18.80;73.20
67529;DHT22;54366;51.980;5.856;2022-09-09T09:19:40;18.80;72.90
67529;DHT22;54366;51.980;5.856;2022-09-09T09:22:41;18.80;72.30
67529;DHT22;54366;51.980;5.856;2022-09-09T09:25:19;18.80;72.50
67529;DHT22;54366;51.980;5.856;2022-09-09T09:27:57;18.80;72.50
67529;DHT22;54366;51.980;5.856;2022-09-09T09:30:38;18.80;72.00
67529;DHT22;54366;51.980;5.856;2022-09-09T09:33:31;18.80;72.50
67529;DHT22;54366;51.980;5.856;2022-09-09T09:35:59;18.70;72.70
67529;DHT22;54366;51.980;5.856;2022-09-09T09:38:27;18.80;72.90
67529;DHT22;54366;51.980;5.856;2022-09-09T09:40:58;18.70;72.60
67529;DHT22;54366;51.980;5.856;2022-09-09T09:43:31;18.80;72.50
67529;DHT22;54366;51.980;5.856;2022-09-09T09:46:03;18.80;72.80
67529;DHT22;54366;51.980;5.856;2022-09-09T09:48:30;18.80;72.30
67529;DHT22;54366;51.980;5.856;2022-09-09T09:51:08;18.80;72.30
67529;DHT22;54366;51.980;5.856;2022-09-09T09:53:37;19.00;71.90
67529;DHT22;54366;51.980;5.856;2022-09-09T09:56:11;19.10;71.80
67529;DHT22;54366;51.980;5.856;2022-09-09T10:01:40;19.20;72.10
67529;DHT22;54366;51.980;5.856;2022-09-09T10:04:21;19.30;71.10
67529;DHT22;54366;51.980;5.856;2022-09-09T10:06:51;19.30;70.90
67529;DHT22;54366;51.980;5.856;2022-09-09T10:23:06;19.20;70.50
67529;DHT22;54366;51.980;5.856;2022-09-09T10:28:51;19.10;70.60
67529;DHT22;54366;51.980;5.856;2022-09-09T10:37:04;19.20;70.50
67529;DHT22;54366;51.980;5.856;2022-09-09T10:39:38;19.20;70.30
67529;DHT22;54366;51.980;5.856;2022-09-09T10:42:12;19.20;70.10
67529;DHT22;54366;51.980;5.856;2022-09-09T10:50:29;19.20;70.10
67529;DHT22;54366;51.980;5.856;2022-09-09T10:53:14;19.20;70.10
67529;DHT22;54366;51.980;5.856;2022-09-09T10:55:50;19.20;70.00
67529;DHT22;54366;51.980;5.856;2022-09-09T10:58:53;19.30;70.50
67529;DHT22;54366;51.980;5.856;2022-09-09T11:01:22;19.30;70.50
67529;DHT22;54366;51.980;5.856;2022-09-09T11:04:08;19.40;70.60
67529;DHT22;54366;51.980;5.856;2022-09-09T11:06:40;19.40;70.10
67529;DHT22;54366;51.980;5.856;2022-09-09T11:09:16;19.40;70.80
67529;DHT22;54366;51.980;5.856;2022-09-09T11:11:51;19.30;71.70
67529;DHT22;54366;51.980;5.856;2022-09-09T11:14:42;19.30;71.70
67529;DHT22;54366;51.980;5.856;2022-09-09T11:17:12;19.20;71.70
67529;DHT22;54366;51.980;5.856;2022-09-09T11:19:43;19.10;72.20
67529;DHT22;54366;51.980;5.856;2022-09-09T11:22:37;19.10;73.30
67529;DHT22;54366;51.980;5.856;2022-09-09T11:38:50;19.20;76.80
67529;DHT22;54366;51.980;5.856;2022-09-09T11:41:20;19.20;76.40
67529;DHT22;54366;51.980;5.856;2022-09-09T11:43:55;19.30;75.70
67529;DHT22;54366;51.980;5.856;2022-09-09T11:46:34;19.30;76.20
67529;DHT22;54366;51.980;5.856;2022-09-09T11:49:04;19.30;76.60
67529;DHT22;54366;51.980;5.856;2022-09-09T11:51:32;19.30;75.30
67529;DHT22;54366;51.980;5.856;2022-09-09T11:54:00;19.30;75.20
67529;DHT22;54366;51.980;5.856;2022-09-09T11:56:32;19.30;75.30
67529;DHT22;54366;51.980;5.856;2022-09-09T11:59:18;19.20;74.80
67529;DHT22;54366;51.980;5.856;2022-09-09T12:01:50;19.20;75.00
67529;DHT22;54366;51.980;5.856;2022-09-09T12:04:34;19.20;75.60
67529;DHT22;54366;51.980;5.856;2022-09-09T12:14:54;19.70;74.70
67529;DHT22;54366;51.980;5.856;2022-09-09T12:17:22;19.70;73.80
67529;DHT22;54366;51.980;5.856;2022-09-09T12:20:01;19.70;73.80
67529;DHT22;54366;51.980;5.856;2022-09-09T12:22:52;19.70;73.80
67529;DHT22;54366;51.980;5.856;2022-09-09T12:28:46;19.60;74.20
67529;DHT22;54366;51.980;5.856;2022-09-09T12:31:21;19.60;73.40
67529;DHT22;54366;51.980;5.856;2022-09-09T12:33:50;19.50;72.80
67529;DHT22;54366;51.980;5.856;2022-09-09T12:36:23;19.50;73.60
67529;DHT22;54366;51.980;5.856;2022-09-09T12:38:50;19.50;73.90
67529;DHT22;54366;51.980;5.856;2022-09-09T12:41:28;19.50;73.40
67529;DHT22;54366;51.980;5.856;2022-09-09T12:44:05;19.60;73.90
67529;DHT22;54366;51.980;5.856;2022-09-09T12:46:41;19.70;73.60
67529;DHT22;54366;51.980;5.856;2022-09-09T12:49:30;19.80;73.80
67529;DHT22;54366;51.980;5.856;2022-09-09T12:52:16;19.80;73.80
67529;DHT22;54366;51.980;5.856;2022-09-09T12:54:45;19.90;73.40
67529;DHT22;54366;51.980;5.856;2022-09-09T12:57:16;19.80;72.50
67529;DHT22;54366;51.980;5.856;2022-09-09T12:59:43;19.80;72.70
67529;DHT22;54366;51.980;5.856;2022-09-09T13:02:22;19.70;72.90
67529;DHT22;54366;51.980;5.856;2022-09-09T13:04:49;19.70;73.50
67529;DHT22;54366;51.980;5.856;2022-09-09T13:07:18;19.70;73.50
67529;DHT22;54366;51.980;5.856;2022-09-09T13:09:45;19.70;73.10
67529;DHT22;54366;51.980;5.856;2022-09-09T13:12:18;19.70;73.50
67529;DHT22;54366;51.980;5.856;2022-09-09T13:14:48;19.70;74.50
67529;DHT22;54366;51.980;5.856;2022-09-09T13:17:23;19.60;75.30
67529;DHT22;54366;51.980;5.856;2022-09-09T13:19:50;19.60;75.50
67529;DHT22;54366;51.980;5.856;2022-09-09T13:22:39;19.60;75.50
67529;DHT22;54366;51.980;5.856;2022-09-09T13:25:17;19.70;75.30
67529;DHT22;54366;51.980;5.856;2022-09-09T13:28:02;19.80;75.40
67529;DHT22;54366;51.980;5.856;2022-09-09T13:30:37;19.90;75.10
67529;DHT22;54366;51.980;5.856;2022-09-09T13:38:31;20.00;73.50
67529;DHT22;54366;51.980;5.856;2022-09-09T13:41:06;20.00;73.50
67529;DHT22;54366;51.980;5.856;2022-09-09T13:43:43;20.10;73.70
67529;DHT22;54366;51.980;5.856;2022-09-09T13:46:35;20.10;73.70
67529;DHT22;54366;51.980;5.856;2022-09-09T13:49:19;20.10;73.20
67529;DHT22;54366;51.980;5.856;2022-09-09T13:51:49;20.10;73.00
67529;DHT22;54366;51.980;5.856;2022-09-09T13:54:19;20.10;72.80
67529;DHT22;54366;51.980;5.856;2022-09-09T13:56:46;20.10;72.50
67529;DHT22;54366;51.980;5.856;2022-09-09T13:59:17;20.00;72.50
67529;DHT22;54366;51.980;5.856;2022-09-09T14:01:46;20.00;72.60
67529;DHT22;54366;51.980;5.856;2022-09-09T14:04:12;20.00;72.70
67529;DHT22;54366;51.980;5.856;2022-09-09T14:06:39;19.90;72.30
67529;DHT22;54366;51.980;5.856;2022-09-09T14:09:06;20.00;72.50
67529;DHT22;54366;51.980;5.856;2022-09-09T14:11:33;20.00;72.40
67529;DHT22;54366;51.980;5.856;2022-09-09T14:13:59;20.00;72.30
67529;DHT22;54366;51.980;5.856;2022-09-09T14:16:26;20.10;71.90
67529;DHT22;54366;51.980;5.856;2022-09-09T14:18:54;20.10;71.50
67529;DHT22;54366;51.980;5.856;2022-09-09T14:21:23;20.10;71.10
67529;DHT22;54366;51.980;5.856;2022-09-09T14:23:49;20.10;71.00
67529;DHT22;54366;51.980;5.856;2022-09-09T14:26:15;20.10;71.10
67529;DHT22;54366;51.980;5.856;2022-09-09T14:28:42;20.10;71.10
67529;DHT22;54366;51.980;5.856;2022-09-09T14:31:08;20.00;71.20
67529;DHT22;54366;51.980;5.856;2022-09-09T14:33:36;20.00;71.40
67529;DHT22;54366;51.980;5.856;2022-09-09T14:36:03;20.00;71.40
67529;DHT22;54366;51.980;5.856;2022-09-09T14:38:35;20.00;71.30
67529;DHT22;54366;51.980;5.856;2022-09-09T14:41:06;20.00;71.40
67529;DHT22;54366;51.980;5.856;2022-09-09T14:43:33;20.00;71.10
67529;DHT22;54366;51.980;5.856;2022-09-09T14:46:10;20.00;71.30
67529;DHT22;54366;51.980;5.856;2022-09-09T14:48:36;20.00;71.40
67529;DHT22;54366;51.980;5.856;2022-09-09T14:51:11;20.10;71.60
67529;DHT22;54366;51.980;5.856;2022-09-09T14:53:39;20.20;71.70
67529;DHT22;54366;51.980;5.856;2022-09-09T14:56:06;20.20;71.90
67529;DHT22;54366;51.980;5.856;2022-09-09T14:58:33;20.20;71.70
67529;DHT22;54366;51.980;5.856;2022-09-09T15:01:05;20.30;71.70
67529;DHT22;54366;51.980;5.856;2022-09-09T15:03:32;20.30;71.30
67529;DHT22;54366;51.980;5.856;2022-09-09T15:05:58;20.30;71.00
67529;DHT22;54366;51.980;5.856;2022-09-09T15:08:25;20.30;71.20
67529;DHT22;54366;51.980;5.856;2022-09-09T15:10:59;20.30;71.20
67529;DHT22;54366;51.980;5.856;2022-09-09T15:13:26;20.30;71.40
67529;DHT22;54366;51.980;5.856;2022-09-09T15:15:53;20.30;71.30
67529;DHT22;54366;51.980;5.856;2022-09-09T15:18:21;20.30;71.50
67529;DHT22;54366;51.980;5.856;2022-09-09T15:20:47;20.20;71.50
67529;DHT22;54366;51.980;5.856;2022-09-09T15:23:14;20.20;72.00
67529;DHT22;54366;51.980;5.856;2022-09-09T15:25:58;20.20;72.40
67529;DHT22;54366;51.980;5.856;2022-09-09T15:28:24;20.10;72.80
67529;DHT22;54366;51.980;5.856;2022-09-09T15:30:52;20.10;73.10
67529;DHT22;54366;51.980;5.856;2022-09-09T15:33:22;20.10;73.50
67529;DHT22;54366;51.980;5.856;2022-09-09T15:35:48;20.00;74.00
67529;DHT22;54366;51.980;5.856;2022-09-09T15:38:16;20.00;74.20
67529;DHT22;54366;51.980;5.856;2022-09-09T15:40:43;19.90;75.00
67529;DHT22;54366;51.980;5.856;2022-09-09T15:43:10;20.00;75.60
67529;DHT22;54366;51.980;5.856;2022-09-09T15:45:37;19.90;75.50
67529;DHT22;54366;51.980;5.856;2022-09-09T15:48:03;19.90;75.40
67529;DHT22;54366;51.980;5.856;2022-09-09T15:50:30;19.90;75.50
67529;DHT22;54366;51.980;5.856;2022-09-09T15:52:59;19.80;75.60
67529;DHT22;54366;51.980;5.856;2022-09-09T15:55:25;19.80;76.20
67529;DHT22;54366;51.980;5.856;2022-09-09T15:57:51;19.70;76.60
67529;DHT22;54366;51.980;5.856;2022-09-09T16:00:21;19.70;78.30
67529;DHT22;54366;51.980;5.856;2022-09-09T16:02:48;19.50;78.30
67529;DHT22;54366;51.980;5.856;2022-09-09T16:05:15;19.40;77.70
67529;DHT22;54366;51.980;5.856;2022-09-09T16:07:41;19.00;71.10
67529;DHT22;54366;51.980;5.856;2022-09-09T16:10:09;18.60;73.10
67529;DHT22;54366;51.980;5.856;2022-09-09T16:12:35;18.40;74.90
67529;DHT22;54366;51.980;5.856;2022-09-09T16:15:02;18.30;76.40
67529;DHT22;54366;51.980;5.856;2022-09-09T16:17:28;18.30;77.60
67529;DHT22;54366;51.980;5.856;2022-09-09T16:19:54;18.30;78.20
67529;DHT22;54366;51.980;5.856;2022-09-09T16:22:21;18.40;79.30
67529;DHT22;54366;51.980;5.856;2022-09-09T16:24:47;18.40;80.20
67529;DHT22;54366;51.980;5.856;2022-09-09T16:27:13;18.50;80.00
67529;DHT22;54366;51.980;5.856;2022-09-09T16:29:40;18.60;79.40
67529;DHT22;54366;51.980;5.856;2022-09-09T16:32:06;18.70;79.70
67529;DHT22;54366;51.980;5.856;2022-09-09T16:34:34;18.70;80.00
67529;DHT22;54366;51.980;5.856;2022-09-09T16:37:00;18.80;80.10
67529;DHT22;54366;51.980;5.856;2022-09-09T16:39:27;18.90;79.80
67529;DHT22;54366;51.980;5.856;2022-09-09T16:41:54;18.90;79.70
67529;DHT22;54366;51.980;5.856;2022-09-09T16:44:20;18.90;79.40
67529;DHT22;54366;51.980;5.856;2022-09-09T16:46:47;18.90;79.10
67529;DHT22;54366;51.980;5.856;2022-09-09T16:49:20;18.90;79.00
67529;DHT22;54366;51.980;5.856;2022-09-09T16:51:48;18.90;78.90
67529;DHT22;54366;51.980;5.856;2022-09-09T16:54:16;18.90;78.90
67529;DHT22;54366;51.980;5.856;2022-09-09T16:56:44;18.90;79.20
67529;DHT22;54366;51.980;5.856;2022-09-09T16:59:19;18.90;79.20
67529;DHT22;54366;51.980;5.856;2022-09-09T17:01:49;18.90;79.20
67529;DHT22;54366;51.980;5.856;2022-09-09T17:04:24;18.90;79.10
67529;DHT22;54366;51.980;5.856;2022-09-09T17:06:53;18.80;79.00
67529;DHT22;54366;51.980;5.856;2022-09-09T17:09:20;18.90;79.10
67529;DHT22;54366;51.980;5.856;2022-09-09T17:11:48;18.80;78.90
67529;DHT22;54366;51.980;5.856;2022-09-09T17:14:18;18.80;79.00
67529;DHT22;54366;51.980;5.856;2022-09-09T17:16:45;18.80;79.40
67529;DHT22;54366;51.980;5.856;2022-09-09T17:19:12;18.80;79.50
67529;DHT22;54366;51.980;5.856;2022-09-09T17:21:39;18.80;79.40
67529;DHT22;54366;51.980;5.856;2022-09-09T17:24:05;18.80;79.30
67529;DHT22;54366;51.980;5.856;2022-09-09T17:26:33;18.80;79.10
67529;DHT22;54366;51.980;5.856;2022-09-09T17:29:01;18.80;79.00
67529;DHT22;54366;51.980;5.856;2022-09-09T17:31:29;18.80;79.30
67529;DHT22;54366;51.980;5.856;2022-09-09T17:33:56;18.70;79.30
67529;DHT22;54366;51.980;5.856;2022-09-09T17:36:28;18.80;79.30
67529;DHT22;54366;51.980;5.856;2022-09-09T17:38:56;18.70;79.30
67529;DHT22;54366;51.980;5.856;2022-09-09T17:41:28;18.70;79.60
67529;DHT22;54366;51.980;5.856;2022-09-09T17:43:54;18.70;80.00
67529;DHT22;54366;51.980;5.856;2022-09-09T17:46:26;18.60;79.70
67529;DHT22;54366;51.980;5.856;2022-09-09T17:48:56;18.60;79.70
67529;DHT22;54366;51.980;5.856;2022-09-09T17:51:25;18.60;79.90
67529;DHT22;54366;51.980;5.856;2022-09-09T17:53:54;18.60;80.20
67529;DHT22;54366;51.980;5.856;2022-09-09T17:56:22;18.50;80.00
67529;DHT22;54366;51.980;5.856;2022-09-09T17:58:50;18.50;80.40
67529;DHT22;54366;51.980;5.856;2022-09-09T18:01:19;18.50;80.40
67529;DHT22;54366;51.980;5.856;2022-09-09T18:03:46;18.50;80.50
67529;DHT22;54366;51.980;5.856;2022-09-09T18:06:16;18.50;80.30
67529;DHT22;54366;51.980;5.856;2022-09-09T18:08:51;18.40;80.40